Time;durP1;ratioP1;P1;durP2;ratioP2;P2;SDS_P1;SDS_P2;PMS_P1;PMS_P2;Temp;Humidity;BMP_temperature;BMP_pressure;BME280_temperature;BME280_humidity;BME280_pressure;Samples;Min_cycle;Max_cycle;Signal;HPM_P1;HPM_P2
2021/06/01 00:03:50;;;;;;;;;;;7.80;99.90;;;;;;8326774;28;19913;-60
2021/06/01 00:07:51;;;;;;;;;;;7.70;99.90;;;;;;8307916;28;19921;-61
2021/06/01 00:11:51;;;;;;;;;;;7.70;99.90;;;;;;8326452;28;20491;-62
2021/06/01 00:15:52;;;;;;;;;;;7.70;99.90;;;;;;8326248;28;19917;-61
2021/06/01 00:19:53;;;;;;;;;;;7.50;99.90;;;;;;8326766;28;19967;-62
2021/06/01 00:23:54;;;;;;;;;;;7.30;99.90;;;;;;8308734;28;19917;-61
2021/06/01 00:27:55;;;;;;;;;;;7.20;99.90;;;;;;8326192;28;19952;-61
2021/06/01 00:31:55;;;;;;;;;;;7.10;99.90;;;;;;8326108;28;20003;-60
2021/06/01 00:35:56;;;;;;;;;;;7.40;99.90;;;;;;8325900;28;19956;-61
2021/06/01 00:39:56;;;;;;;;;;;7.10;99.90;;;;;;8319325;28;19958;-60
2021/06/01 00:43:57;;;;;;;;;;;7.00;99.90;;;;;;8326425;28;19909;-62
2021/06/01 00:47:57;;;;;;;;;;;6.90;99.90;;;;;;8326214;28;20323;-62
2021/06/01 00:51:58;;;;;;;;;;;6.80;99.90;;;;;;8326201;28;19909;-61
2021/06/01 00:55:59;;;;;;;;;;;6.80;99.90;;;;;;8308269;28;19913;-62
2021/06/01 01:00:00;;;;;;;;;;;6.80;99.90;;;;;;8326086;28;19909;-62
2021/06/01 01:04:00;;;;;;;;;;;6.60;99.90;;;;;;8325905;28;19915;-61
2021/06/01 01:08:32;;;;;;;;;;;6.50;99.90;;;;;;8324984;28;19960;-61
2021/06/01 01:12:41;;;;;;;;;;;6.70;99.90;;;;;;8326210;28;19924;-62
2021/06/01 01:16:48;;;;;;;;;;;6.50;99.90;;;;;;8327440;28;20291;-61
2021/06/01 01:21:08;;;;;;;;;;;6.10;99.90;;;;;;8331725;28;20379;-62
2021/06/01 01:25:08;;;;;;;;;;;6.10;99.90;;;;;;8331768;28;20394;-61
2021/06/01 01:29:11;;;;;;;;;;;6.30;99.90;;;;;;8331504;28;20000;-61
2021/06/01 01:33:13;;;;;;;;;;;6.20;99.90;;;;;;8331630;28;19909;-61
2021/06/01 01:37:15;;;;;;;;;;;6.30;99.90;;;;;;8331185;28;19913;-61
2021/06/01 01:41:16;;;;;;;;;;;6.10;99.90;;;;;;8330453;28;19921;-62
2021/06/01 01:45:22;;;;;;;;;;;6.20;99.90;;;;;;8331114;28;20007;-60
2021/06/01 01:49:24;;;;;;;;;;;6.00;99.90;;;;;;8330911;28;19913;-61
2021/06/01 01:53:25;;;;;;;;;;;6.00;99.90;;;;;;8330909;28;19948;-60
2021/06/01 01:57:26;;;;;;;;;;;5.90;99.90;;;;;;8330621;28;20298;-62
2021/06/01 02:01:29;;;;;;;;;;;5.90;99.90;;;;;;8312685;28;19997;-61
2021/06/01 02:05:30;;;;;;;;;;;6.00;99.90;;;;;;8329964;28;19960;-61
2021/06/01 02:09:30;;;;;;;;;;;6.10;99.90;;;;;;8312282;28;19909;-61
2021/06/01 02:13:32;;;;;;;;;;;6.10;99.90;;;;;;8330078;28;20720;-61
2021/06/01 02:17:32;;;;;;;;;;;5.80;99.90;;;;;;8329957;28;19971;-62
2021/06/01 02:25:53;;;;;;;;;;;5.50;99.90;;;;;;8321566;28;20440;-61
2021/06/01 02:30:02;;;;;;;;;;;5.50;99.90;;;;;;8310811;28;19909;-62
2021/06/01 02:34:05;;;;;;;;;;;5.20;99.90;;;;;;8311908;28;19913;-62
2021/06/01 02:38:07;;;;;;;;;;;5.20;99.90;;;;;;8328914;28;20002;-62
2021/06/01 02:42:07;;;;;;;;;;;5.20;99.90;;;;;;8329268;28;19909;-62
2021/06/01 02:46:08;;;;;;;;;;;5.10;99.90;;;;;;8329271;28;19916;-61
2021/06/01 02:50:10;;;;;;;;;;;5.20;99.90;;;;;;8328776;28;19910;-60
2021/06/01 02:54:11;;;;;;;;;;;5.40;99.90;;;;;;8328695;28;19909;-61
2021/06/01 02:58:12;;;;;;;;;;;5.30;99.90;;;;;;8327814;28;19920;-59
2021/06/01 03:02:12;;;;;;;;;;;5.30;99.90;;;;;;8329022;28;19913;-61
2021/06/01 03:06:13;;;;;;;;;;;5.10;99.90;;;;;;8327991;28;19956;-62
2021/06/01 03:10:14;;;;;;;;;;;5.10;99.90;;;;;;8328271;28;20043;-61
2021/06/01 03:14:14;;;;;;;;;;;5.20;99.90;;;;;;8328458;28;19909;-61
2021/06/01 03:18:15;;;;;;;;;;;5.10;99.90;;;;;;8328086;28;20407;-59
2021/06/01 03:22:15;;;;;;;;;;;5.00;99.90;;;;;;8328105;28;20394;-61
2021/06/01 03:26:16;;;;;;;;;;;4.80;99.90;;;;;;8327844;28;19909;-62
2021/06/01 03:30:17;;;;;;;;;;;4.70;99.90;;;;;;8327791;28;19909;-62
2021/06/01 03:34:17;;;;;;;;;;;4.80;99.90;;;;;;8327536;28;19916;-60
2021/06/01 03:38:17;;;;;;;;;;;5.10;99.90;;;;;;8327054;28;19971;-61
2021/06/01 03:42:18;;;;;;;;;;;5.00;99.90;;;;;;8327309;28;20356;-61
2021/06/01 03:46:19;;;;;;;;;;;5.00;99.90;;;;;;8327380;28;20311;-61
2021/06/01 03:50:19;;;;;;;;;;;4.90;99.90;;;;;;8327217;28;19944;-61
2021/06/01 03:54:20;;;;;;;;;;;5.00;99.90;;;;;;8332914;28;19916;-61
2021/06/01 03:58:20;;;;;;;;;;;5.00;99.90;;;;;;8359851;28;19920;-61
2021/06/01 04:02:21;;;;;;;;;;;5.00;99.90;;;;;;8360125;28;19909;-62
2021/06/01 04:06:22;;;;;;;;;;;5.20;99.90;;;;;;8343402;28;20295;-62
2021/06/01 04:10:22;;;;;;;;;;;5.40;99.90;;;;;;8342153;28;19909;-62
2021/06/01 04:14:23;;;;;;;;;;;5.50;99.90;;;;;;8360190;28;19913;-61
2021/06/01 04:18:23;;;;;;;;;;;5.60;99.90;;;;;;8359427;28;19920;-61
2021/06/01 04:22:24;;;;;;;;;;;5.60;99.90;;;;;;8341984;28;19916;-60
2021/06/01 04:26:27;;;;;;;;;;;5.90;99.90;;;;;;8349796;28;19936;-62
2021/06/01 04:30:27;;;;;;;;;;;6.20;99.90;;;;;;8325604;28;20330;-62
2021/06/01 04:34:28;;;;;;;;;;;6.40;99.90;;;;;;8325278;28;19967;-62
2021/06/01 04:38:28;;;;;;;;;;;6.70;99.90;;;;;;8336097;28;19917;-62
2021/06/01 04:42:29;;;;;;;;;;;6.90;99.90;;;;;;8342390;28;19959;-62
2021/06/01 04:46:30;;;;;;;;;;;8.10;99.90;;;;;;8325229;28;20006;-65
2021/06/01 04:50:30;;;;;;;;;;;9.30;99.90;;;;;;8344971;28;19928;-65
2021/06/01 04:54:31;;;;;;;;;;;9.80;99.90;;;;;;8365826;28;20317;-64
2021/06/01 04:58:31;;;;;;;;;;;10.20;99.90;;;;;;8365300;28;20383;-64
2021/06/01 05:02:32;;;;;;;;;;;10.40;99.90;;;;;;8344084;28;19913;-65
2021/06/01 05:06:33;;;;;;;;;;;10.70;99.90;;;;;;8348215;28;19920;-64
2021/06/01 05:10:33;;;;;;;;;;;11.00;99.90;;;;;;8339157;28;19916;-65
2021/06/01 05:14:34;;;;;;;;;;;11.30;99.90;;;;;;8328895;28;20324;-64
2021/06/01 05:18:34;;;;;;;;;;;11.10;99.90;;;;;;8328881;28;19917;-65
2021/06/01 05:22:34;;;;;;;;;;;10.80;99.90;;;;;;8313919;28;19910;-65
2021/06/01 05:26:35;;;;;;;;;;;10.70;99.90;;;;;;8331725;28;19920;-65
2021/06/01 05:30:47;;;;;;;;;;;10.60;99.90;;;;;;8330728;28;19913;-65
2021/06/01 05:34:57;;;;;;;;;;;10.80;99.90;;;;;;8312417;28;19909;-65
2021/06/01 05:38:58;;;;;;;;;;;11.00;99.90;;;;;;8328149;28;20003;-65
2021/06/01 05:42:58;;;;;;;;;;;11.20;99.90;;;;;;8330350;28;20353;-64
2021/06/01 05:46:59;;;;;;;;;;;11.40;99.90;;;;;;8323666;28;19914;-65
2021/06/01 05:51:00;;;;;;;;;;;11.70;99.90;;;;;;8327337;28;20016;-65
2021/06/01 05:55:03;;;;;;;;;;;11.90;99.90;;;;;;8330108;28;19944;-65
2021/06/01 05:59:04;;;;;;;;;;;12.20;99.90;;;;;;8355377;28;20012;-65
2021/06/01 06:03:05;;;;;;;;;;;12.40;99.90;;;;;;8341995;28;19915;-65
2021/06/01 06:07:05;;;;;;;;;;;12.70;99.90;;;;;;8329538;28;20663;-65
2021/06/01 06:11:06;;;;;;;;;;;13.40;99.90;;;;;;8356020;28;20416;-65
2021/06/01 06:15:09;;;;;;;;;;;13.60;99.90;;;;;;8343579;28;19917;-65
2021/06/01 06:19:10;;;;;;;;;;;13.80;99.90;;;;;;8328910;28;19913;-65
2021/06/01 06:23:12;;;;;;;;;;;14.00;99.90;;;;;;8329559;28;19996;-64
2021/06/01 06:27:12;;;;;;;;;;;14.30;99.90;;;;;;8329509;28;19917;-64
2021/06/01 06:31:13;;;;;;;;;;;14.50;99.90;;;;;;8328939;28;19952;-65
2021/06/01 06:35:14;;;;;;;;;;;14.50;99.90;;;;;;8329108;28;20000;-65
2021/06/01 06:39:14;;;;;;;;;;;14.80;99.90;;;;;;8310981;28;19940;-64
2021/06/01 06:43:15;;;;;;;;;;;14.80;99.90;;;;;;8343756;28;19920;-66
2021/06/01 06:47:26;;;;;;;;;;;14.90;99.90;;;;;;8341888;28;20019;-65
2021/06/01 06:51:27;;;;;;;;;;;15.20;99.90;;;;;;8311911;28;19998;-65
2021/06/01 06:55:27;;;;;;;;;;;15.30;99.90;;;;;;8350322;28;19924;-65
2021/06/01 06:59:28;;;;;;;;;;;15.50;99.90;;;;;;8315141;28;19914;-64
2021/06/01 07:03:28;;;;;;;;;;;15.50;99.90;;;;;;8328216;28;19964;-65
2021/06/01 07:07:29;;;;;;;;;;;15.80;99.90;;;;;;8338604;28;19967;-65
2021/06/01 07:11:29;;;;;;;;;;;16.10;99.90;;;;;;8328277;28;20383;-64
2021/06/01 07:15:35;;;;;;;;;;;16.40;99.90;;;;;;8344289;28;20310;-65
2021/06/01 07:19:35;;;;;;;;;;;16.30;99.90;;;;;;8341124;28;20042;-64
2021/06/01 07:23:36;;;;;;;;;;;16.20;99.90;;;;;;8343468;28;20035;-64
2021/06/01 07:27:37;;;;;;;;;;;16.30;99.90;;;;;;8337354;28;20302;-63
2021/06/01 07:31:37;;;;;;;;;;;16.50;99.90;;;;;;8330834;28;20350;-64
2021/06/01 07:35:38;;;;;;;;;;;16.70;99.90;;;;;;8338250;28;20399;-63
2021/06/01 07:39:38;;;;;;;;;;;16.60;99.90;;;;;;8308378;28;19909;-64
2021/06/01 07:43:39;;;;;;;;;;;16.60;99.90;;;;;;8325501;28;19936;-64
2021/06/01 07:47:39;;;;;;;;;;;16.60;97.90;;;;;;8325916;28;19913;-63
2021/06/01 07:51:39;;;;;;;;;;;16.50;98.00;;;;;;8326087;28;19913;-64
2021/06/01 07:55:40;;;;;;;;;;;16.60;96.50;;;;;;8314576;28;19919;-64
2021/06/01 07:59:41;;;;;;;;;;;16.90;98.00;;;;;;8324220;28;19913;-65
2021/06/01 08:03:41;;;;;;;;;;;17.40;98.90;;;;;;8306971;28;19921;-65
2021/06/01 08:07:42;;;;;;;;;;;17.70;98.20;;;;;;8307631;28;19917;-65
2021/06/01 08:11:42;;;;;;;;;;;18.10;98.20;;;;;;8307420;28;19909;-65
2021/06/01 08:15:48;;;;;;;;;;;18.20;95.10;;;;;;8325919;28;19920;-65
2021/06/01 08:19:48;;;;;;;;;;;17.90;96.40;;;;;;8341093;28;19912;-66
2021/06/01 08:23:49;;;;;;;;;;;18.20;96.40;;;;;;8323803;28;19998;-66
2021/06/01 08:27:49;;;;;;;;;;;18.50;95.70;;;;;;8343583;28;20553;-66
2021/06/01 08:31:50;;;;;;;;;;;18.70;94.00;;;;;;8320488;28;19913;-66
2021/06/01 08:35:50;;;;;;;;;;;18.60;93.20;;;;;;8318491;28;19924;-65
2021/06/01 08:39:51;;;;;;;;;;;18.90;93.50;;;;;;8322255;28;19963;-65
2021/06/01 08:43:52;;;;;;;;;;;19.00;93.30;;;;;;8325698;28;20387;-65
2021/06/01 08:47:56;;;;;;;;;;;18.60;91.60;;;;;;8324611;28;20383;-65
2021/06/01 08:51:56;;;;;;;;;;;18.70;92.20;;;;;;8316469;28;19913;-66
2021/06/01 08:55:57;;;;;;;;;;;18.90;91.90;;;;;;8346865;28;19921;-66
2021/06/01 08:59:58;;;;;;;;;;;19.20;92.50;;;;;;8352177;28;19921;-65
2021/06/01 09:04:03;;;;;;;;;;;19.20;90.00;;;;;;8323621;28;19913;-65
2021/06/01 09:08:10;;;;;;;;;;;19.40;90.90;;;;;;8323147;28;19972;-65
2021/06/01 09:12:27;;;;;;;;;;;19.60;90.20;;;;;;8315630;28;20052;-63
2021/06/01 09:21:06;;;;;;;;;;;20.00;90.10;;;;;;8324315;28;20470;-63
2021/06/01 09:25:09;;;;;;;;;;;20.20;82.40;;;;;;8344324;28;20003;-63
2021/06/01 09:29:10;;;;;;;;;;;19.80;83.10;;;;;;8319796;28;19963;-65
2021/06/01 09:33:14;;;;;;;;;;;19.80;85.10;;;;;;8302529;28;19917;-66
2021/06/01 09:37:19;;;;;;;;;;;20.10;85.00;;;;;;8326907;28;19925;-66
2021/06/01 09:41:26;;;;;;;;;;;20.40;86.10;;;;;;8314183;28;19991;-65
2021/06/01 09:45:27;;;;;;;;;;;20.40;80.00;;;;;;8312576;28;19921;-65
2021/06/01 09:49:27;;;;;;;;;;;20.50;82.10;;;;;;8333838;28;19917;-66
2021/06/01 09:57:28;;;;;;;;;;;20.40;74.70;;;;;;8333260;28;19921;-66
2021/06/01 10:01:32;;;;;;;;;;;20.50;73.00;;;;;;8336683;28;19913;-65
2021/06/01 10:05:34;;;;;;;;;;;20.60;74.20;;;;;;8332343;28;19913;-65
2021/06/01 10:09:44;;;;;;;;;;;20.50;70.40;;;;;;8312089;28;20431;-65
2021/06/01 10:13:44;;;;;;;;;;;20.50;71.20;;;;;;8330277;28;19913;-65
2021/06/01 10:17:45;;;;;;;;;;;20.80;69.60;;;;;;8329212;28;19920;-65
2021/06/01 10:21:51;;;;;;;;;;;20.80;72.00;;;;;;8331366;28;19943;-65
2021/06/01 10:25:52;;;;;;;;;;;21.20;75.70;;;;;;8335030;28;19917;-65
2021/06/01 10:29:53;;;;;;;;;;;21.60;74.10;;;;;;8310883;28;19917;-65
2021/06/01 10:33:55;;;;;;;;;;;21.80;68.40;;;;;;8330035;28;19921;-64
2021/06/01 10:51:28;;;;;;;;;;;22.60;69.70;;;;;;8344276;28;19924;-63
2021/06/01 10:55:49;;;;;;;;;;;22.50;65.10;;;;;;8324844;28;19917;-64
2021/06/01 11:01:50;;;;;;;;;;;22.70;65.00;;;;;;8335659;28;19924;-64
2021/06/01 11:04:20;;;;;;;;;;;23.00;64.60;;;;;;8321103;28;20482;-65
2021/06/01 11:08:32;;;;;;;;;;;23.70;64.40;;;;;;8335558;28;19965;-64
2021/06/01 11:12:36;;;;;;;;;;;23.90;56.60;;;;;;8309825;28;19913;-65
2021/06/01 11:16:52;;;;;;;;;;;23.30;56.20;;;;;;8308898;28;19917;-64
2021/06/01 11:21:31;;;;;;;;;;;23.60;60.40;;;;;;8321785;28;19913;-64
2021/06/01 11:34:10;;;;;;;;;;;26.80;55.10;;;;;;8342934;28;20412;-64
2021/06/01 11:38:21;;;;;;;;;;;29.80;49.40;;;;;;8324064;28;19970;-64
2021/06/01 11:51:16;;;;;;;;;;;32.80;36.80;;;;;;8344303;28;19913;-63
2021/06/01 11:55:17;;;;;;;;;;;30.60;36.90;;;;;;8357851;28;20279;-64
2021/06/01 12:04:14;;;;;;;;;;;29.90;39.70;;;;;;8320637;28;19960;-64
2021/06/01 12:21:05;;;;;;;;;;;26.50;41.00;;;;;;8317481;28;20036;-64
2021/06/01 12:25:08;;;;;;;;;;;26.50;46.50;;;;;;8308718;28;20375;-62
2021/06/01 12:33:38;;;;;;;;;;;27.30;40.30;;;;;;8327257;28;20028;-62
2021/06/01 12:42:17;;;;;;;;;;;27.70;35.90;;;;;;8328297;28;20004;-62
2021/06/01 13:08:25;;;;;;;;;;;35.30;28.00;;;;;;8330953;28;20074;-63
2021/06/01 13:13:37;;;;;;;;;;;35.50;29.70;;;;;;8317344;28;19920;-64
2021/06/01 13:21:12;;;;;;;;;;;38.00;26.60;;;;;;8355731;28;19935;-64
2021/06/01 13:30:20;;;;;;;;;;;34.90;29.50;;;;;;8306311;28;19990;-63
2021/06/01 13:47:23;;;;;;;;;;;35.80;28.50;;;;;;8350743;28;19936;-64
2021/06/01 13:55:50;;;;;;;;;;;39.70;24.50;;;;;;8329889;28;19936;-64
2021/06/01 14:21:47;;;;;;;;;;;38.50;25.40;;;;;;8285614;28;19991;-65
2021/06/01 14:30:18;;;;;;;;;;;37.80;27.90;;;;;;8334131;28;20009;-66
2021/06/01 14:39:04;;;;;;;;;;;39.50;25.50;;;;;;8341627;28;19958;-66
2021/06/01 15:47:51;;;;;;;;;;;43.60;23.50;;;;;;8334008;28;19982;-66
2021/06/01 15:52:07;;;;;;;;;;;40.20;24.00;;;;;;8342409;28;19987;-65
2021/06/01 16:11:18;;;;;;;;;;;39.10;24.40;;;;;;8332506;28;19924;-65
2021/06/01 16:13:57;;;;;;;;;;;44.60;22.90;;;;;;8329708;28;19959;-66
2021/06/01 16:22:40;;;;;;;;;;;44.20;22.20;;;;;;8325829;28;19920;-68
2021/06/01 16:44:08;;;;;;;;;;;41.80;22.40;;;;;;8354851;28;19970;-65
2021/06/01 17:05:33;;;;;;;;;;;39.20;24.70;;;;;;8339308;28;20287;-65
2021/06/01 17:14:00;;;;;;;;;;;41.00;23.50;;;;;;8345802;28;19927;-63
2021/06/01 17:18:08;;;;;;;;;;;37.90;25.20;;;;;;8345804;28;19917;-65
2021/06/01 17:30:49;;;;;;;;;;;31.80;29.40;;;;;;8331302;28;19994;-63
2021/06/01 17:34:58;;;;;;;;;;;29.20;34.10;;;;;;8342822;28;19945;-64
2021/06/01 17:39:00;;;;;;;;;;;26.30;37.60;;;;;;8321987;28;21232;-63
2021/06/01 17:43:02;;;;;;;;;;;25.80;39.80;;;;;;8319730;28;19920;-62
2021/06/01 17:47:03;;;;;;;;;;;26.00;41.50;;;;;;8331673;28;19970;-63
2021/06/01 17:51:07;;;;;;;;;;;26.00;41.30;;;;;;8327634;28;19909;-63
2021/06/01 17:55:08;;;;;;;;;;;26.00;39.10;;;;;;8331815;28;19913;-64
2021/06/01 17:59:09;;;;;;;;;;;25.90;39.80;;;;;;8335385;28;20015;-63
2021/06/01 18:03:10;;;;;;;;;;;25.80;39.00;;;;;;8335929;28;19920;-64
2021/06/01 18:07:25;;;;;;;;;;;26.80;41.10;;;;;;8302695;28;19917;-62
2021/06/01 18:41:52;;;;;;;;;;;21.10;54.20;;;;;;8322690;28;20379;-62
2021/06/01 19:24:35;;;;;;;;;;;17.70;63.40;;;;;;8330844;28;19959;-62
2021/06/01 19:50:26;;;;;;;;;;;16.40;68.90;;;;;;8334274;28;19982;-62
2021/06/01 19:54:27;;;;;;;;;;;16.10;70.50;;;;;;8337382;28;19924;-62
2021/06/01 19:58:29;;;;;;;;;;;15.90;73.90;;;;;;8332153;28;20417;-62
2021/06/01 20:02:32;;;;;;;;;;;15.80;76.30;;;;;;8317995;28;21316;-62
2021/06/01 20:06:33;;;;;;;;;;;15.60;76.90;;;;;;8342727;28;19916;-62
2021/06/01 20:10:35;;;;;;;;;;;15.40;77.10;;;;;;8347580;28;19917;-62
2021/06/01 20:14:36;;;;;;;;;;;15.30;78.70;;;;;;8331711;28;19916;-62
2021/06/01 20:18:40;;;;;;;;;;;15.20;77.10;;;;;;8332553;28;20444;-62
2021/06/01 20:22:51;;;;;;;;;;;15.20;77.00;;;;;;8322899;28;19919;-65
2021/06/01 20:26:51;;;;;;;;;;;15.20;76.50;;;;;;8340828;28;20482;-62
2021/06/01 20:30:58;;;;;;;;;;;15.10;76.30;;;;;;8338319;28;19917;-62
2021/06/01 20:34:59;;;;;;;;;;;15.00;77.80;;;;;;8323373;28;20004;-62
2021/06/01 20:39:04;;;;;;;;;;;15.00;77.90;;;;;;8341092;28;19921;-63
2021/06/01 20:43:05;;;;;;;;;;;14.80;77.80;;;;;;8339626;28;20378;-62
2021/06/01 20:47:06;;;;;;;;;;;14.70;78.00;;;;;;8356133;28;19943;-63
2021/06/01 20:51:06;;;;;;;;;;;14.80;77.20;;;;;;8356839;28;19912;-62
2021/06/01 20:55:12;;;;;;;;;;;14.70;78.90;;;;;;8357277;28;19959;-62
2021/06/01 20:59:13;;;;;;;;;;;14.60;78.80;;;;;;8358248;28;20465;-61
2021/06/01 21:03:15;;;;;;;;;;;14.50;78.90;;;;;;8352145;28;19916;-62
2021/06/01 21:07:16;;;;;;;;;;;14.40;82.10;;;;;;8325229;28;20023;-62
2021/06/01 21:11:17;;;;;;;;;;;14.30;83.20;;;;;;8325227;28;20406;-62
2021/06/01 21:15:18;;;;;;;;;;;14.10;82.90;;;;;;8325356;28;19909;-62
2021/06/01 21:19:19;;;;;;;;;;;14.00;83.00;;;;;;8307429;28;19913;-62
2021/06/01 21:23:19;;;;;;;;;;;13.90;84.80;;;;;;8325219;28;19932;-61
2021/06/01 21:27:20;;;;;;;;;;;13.80;86.20;;;;;;8323051;28;19919;-62
2021/06/01 21:31:25;;;;;;;;;;;13.80;86.90;;;;;;8324203;28;19913;-62
2021/06/01 21:35:26;;;;;;;;;;;13.60;85.90;;;;;;8311059;28;19916;-62
2021/06/01 21:39:28;;;;;;;;;;;13.50;85.80;;;;;;8313452;28;19909;-62
2021/06/01 21:43:29;;;;;;;;;;;13.80;84.20;;;;;;8331313;28;19913;-62
2021/06/01 21:47:31;;;;;;;;;;;13.70;83.90;;;;;;8331029;28;20328;-62
2021/06/01 21:51:34;;;;;;;;;;;14.00;84.00;;;;;;8330782;28;20012;-62
2021/06/01 21:55:35;;;;;;;;;;;14.10;83.70;;;;;;8330887;28;19913;-61
2021/06/01 21:59:38;;;;;;;;;;;14.00;85.50;;;;;;8330393;28;19937;-62
2021/06/01 22:03:39;;;;;;;;;;;13.50;87.60;;;;;;8330432;28;20506;-62
2021/06/01 22:07:40;;;;;;;;;;;13.30;88.80;;;;;;8330099;28;19917;-62
2021/06/01 22:11:41;;;;;;;;;;;13.20;90.80;;;;;;8312618;28;19916;-62
2021/06/01 22:15:54;;;;;;;;;;;13.00;91.70;;;;;;8330079;28;19909;-62
2021/06/01 22:19:59;;;;;;;;;;;12.90;93.00;;;;;;8329888;28;20272;-62
2021/06/01 22:23:59;;;;;;;;;;;12.80;94.60;;;;;;8329575;28;19919;-62
2021/06/01 22:28:00;;;;;;;;;;;12.60;96.70;;;;;;8329436;28;19909;-62
2021/06/01 22:32:02;;;;;;;;;;;12.80;96.60;;;;;;8329328;28;19933;-62
2021/06/01 22:36:07;;;;;;;;;;;12.50;99.20;;;;;;8329266;28;19913;-62
2021/06/01 22:40:09;;;;;;;;;;;12.30;99.90;;;;;;8311487;28;20402;-62
2021/06/01 22:44:10;;;;;;;;;;;11.90;99.90;;;;;;8310734;28;19916;-61
2021/06/01 22:48:10;;;;;;;;;;;11.80;99.90;;;;;;8328365;28;20011;-62
2021/06/01 22:52:12;;;;;;;;;;;11.60;99.90;;;;;;8328552;28;19962;-62
2021/06/01 22:56:20;;;;;;;;;;;11.60;99.90;;;;;;8329084;28;20056;-62
2021/06/01 23:00:22;;;;;;;;;;;11.80;99.90;;;;;;8328880;28;19909;-62
2021/06/01 23:04:22;;;;;;;;;;;11.40;99.90;;;;;;8310906;28;19963;-62
2021/06/01 23:08:23;;;;;;;;;;;11.10;99.90;;;;;;8328232;28;19988;-63
2021/06/01 23:12:24;;;;;;;;;;;11.00;99.90;;;;;;8328572;28;19910;-63
2021/06/01 23:16:27;;;;;;;;;;;10.90;99.90;;;;;;8328320;28;19921;-62
2021/06/01 23:20:28;;;;;;;;;;;10.90;99.90;;;;;;8310198;28;19916;-62
2021/06/01 23:24:28;;;;;;;;;;;10.90;99.90;;;;;;8327979;28;19948;-62
2021/06/01 23:28:29;;;;;;;;;;;10.90;99.90;;;;;;8327678;28;20374;-62
2021/06/01 23:32:30;;;;;;;;;;;10.60;99.90;;;;;;8327164;28;19971;-63
2021/06/01 23:36:33;;;;;;;;;;;10.40;99.90;;;;;;8327442;28;19917;-62
2021/06/01 23:40:35;;;;;;;;;;;10.30;99.90;;;;;;8327368;28;19909;-62
2021/06/01 23:44:35;;;;;;;;;;;10.70;99.90;;;;;;8327412;28;20007;-62
2021/06/01 23:52:36;;;;;;;;;;;10.30;99.90;;;;;;8327165;28;19909;-63
2021/06/01 23:56:37;;;;;;;;;;;10.10;99.90;;;;;;8326642;28;19959;-62
